Time;durP1;ratioP1;P1;durP2;ratioP2;P2;SDS_P1;SDS_P2;PMS_P1;PMS_P2;Temp;Humidity;BMP_temperature;BMP_pressure;BME280_temperature;BME280_humidity;BME280_pressure;Samples;Min_cycle;Max_cycle;Signal;HPM_P1;HPM_P2
2021/03/07 00:01:11;;;;;;;7.63;4.30;;;6.40;63.20;;;;;;4953429;28;20553;-62
2021/03/07 00:03:36;;;;;;;11.47;5.63;;;6.30;63.20;;;;;;4949832;29;20032;-63
2021/03/07 00:06:02;;;;;;;8.57;4.13;;;6.30;62.90;;;;;;4948568;28;20063;-63
2021/03/07 00:08:35;;;;;;;11.30;5.00;;;6.30;63.20;;;;;;4952026;28;20096;-62
2021/03/07 00:11:01;;;;;;;8.65;4.20;;;6.30;63.30;;;;;;4962137;28;20167;-63
2021/03/07 00:13:27;;;;;;;16.60;5.90;;;6.30;63.50;;;;;;4958360;28;20104;-61
2021/03/07 00:15:52;;;;;;;9.40;4.27;;;6.30;63.40;;;;;;4943680;28;20038;-62
2021/03/07 00:18:18;;;;;;;9.27;4.47;;;6.30;63.40;;;;;;4969153;28;20050;-62
2021/03/07 00:20:43;;;;;;;10.07;4.77;;;6.20;63.50;;;;;;4959120;28;20027;-62
2021/03/07 00:23:09;;;;;;;10.53;4.53;;;6.20;63.60;;;;;;4987463;28;20114;-62
2021/03/07 00:25:35;;;;;;;7.73;3.63;;;6.20;63.80;;;;;;4938798;28;20028;-63
2021/03/07 00:28:00;;;;;;;11.07;3.90;;;6.30;63.80;;;;;;4963934;28;20032;-62
2021/03/07 00:30:26;;;;;;;7.80;4.03;;;6.20;63.80;;;;;;4951028;29;20458;-62
2021/03/07 00:32:52;;;;;;;9.33;4.27;;;6.20;63.80;;;;;;4957519;28;20043;-63
2021/03/07 00:35:17;;;;;;;8.17;4.03;;;6.20;64.00;;;;;;4958513;28;20521;-62
2021/03/07 00:37:43;;;;;;;8.20;4.30;;;6.20;63.90;;;;;;4953530;28;20479;-62
2021/03/07 00:40:10;;;;;;;9.03;3.33;;;6.20;64.00;;;;;;4952368;28;20443;-62
2021/03/07 00:42:43;;;;;;;10.23;4.40;;;6.30;64.10;;;;;;4987624;28;20126;-62
2021/03/07 00:45:09;;;;;;;9.17;4.03;;;6.30;64.10;;;;;;4955768;28;20362;-62
2021/03/07 00:47:35;;;;;;;8.63;3.80;;;6.20;64.00;;;;;;4978634;28;20073;-62
2021/03/07 00:50:01;;;;;;;15.27;5.00;;;6.20;64.10;;;;;;4952173;28;20518;-63
2021/03/07 00:52:27;;;;;;;9.43;4.97;;;6.20;64.00;;;;;;4951448;28;20326;-62
2021/03/07 00:54:52;;;;;;;8.97;3.73;;;6.20;64.00;;;;;;4941993;28;20062;-62
2021/03/07 00:57:18;;;;;;;6.70;3.37;;;6.20;64.10;;;;;;4947453;28;20035;-62
2021/03/07 00:59:43;;;;;;;9.57;4.10;;;6.20;64.20;;;;;;4999638;28;20065;-62
2021/03/07 01:02:09;;;;;;;7.77;4.20;;;6.10;64.60;;;;;;4978864;28;20033;-62
2021/03/07 01:04:35;;;;;;;10.83;4.70;;;6.10;64.20;;;;;;4951800;28;20043;-62
2021/03/07 01:07:00;;;;;;;8.40;4.17;;;6.10;64.00;;;;;;4965989;28;20551;-63
2021/03/07 01:09:26;;;;;;;8.80;3.60;;;6.10;64.00;;;;;;4947740;28;20024;-62
2021/03/07 01:11:51;;;;;;;10.53;4.60;;;6.00;63.90;;;;;;4993586;28;20039;-63
2021/03/07 01:14:17;;;;;;;8.13;4.30;;;6.00;64.00;;;;;;4935787;29;20031;-62
2021/03/07 01:16:46;;;;;;;8.60;4.37;;;6.00;64.20;;;;;;4990869;28;20044;-63
2021/03/07 01:19:12;;;;;;;10.80;4.33;;;6.00;64.30;;;;;;4947806;28;20445;-62
2021/03/07 01:21:37;;;;;;;8.20;3.77;;;6.00;64.40;;;;;;5010731;28;20044;-62
2021/03/07 01:24:03;;;;;;;6.30;3.37;;;5.90;64.30;;;;;;4979989;28;20042;-62
2021/03/07 01:26:29;;;;;;;7.83;4.10;;;5.90;64.30;;;;;;5007288;28;20041;-62
2021/03/07 01:28:55;;;;;;;9.50;4.40;;;5.90;64.40;;;;;;4953966;28;20042;-62
2021/03/07 01:31:20;;;;;;;8.47;4.03;;;5.90;64.30;;;;;;5020280;28;20039;-62
2021/03/07 01:33:46;;;;;;;8.47;4.00;;;5.90;64.10;;;;;;4951971;28;20059;-63
2021/03/07 01:36:11;;;;;;;8.80;4.50;;;5.80;64.10;;;;;;4948772;28;20043;-62
2021/03/07 01:38:39;;;;;;;8.20;4.67;;;5.80;64.20;;;;;;4954481;28;20057;-61
2021/03/07 01:41:05;;;;;;;9.80;3.93;;;5.70;64.20;;;;;;4963111;28;20559;-62
2021/03/07 01:43:31;;;;;;;10.83;4.10;;;5.00;63.90;;;;;;4997301;28;20031;-62
2021/03/07 01:45:56;;;;;;;12.43;4.73;;;5.60;64.50;;;;;;5030063;28;20044;-62
2021/03/07 01:48:22;;;;;;;8.93;3.80;;;5.60;64.60;;;;;;4993323;28;20041;-62
2021/03/07 01:50:50;;;;;;;8.57;4.00;;;5.60;64.80;;;;;;4943378;28;20085;-62
2021/03/07 01:53:17;;;;;;;7.27;4.10;;;5.50;64.90;;;;;;4954907;28;20032;-62
2021/03/07 01:55:44;;;;;;;12.00;4.70;;;5.50;65.00;;;;;;4926536;28;607888;-62
2021/03/07 01:58:19;;;;;;;9.17;3.60;;;5.50;65.10;;;;;;4957983;28;20054;-62
2021/03/07 02:00:46;;;;;;;8.77;4.47;;;5.50;65.20;;;;;;4955829;28;20030;-62
2021/03/07 02:03:11;;;;;;;10.17;4.30;;;5.50;65.10;;;;;;4960762;28;20113;-62
2021/03/07 02:05:37;;;;;;;10.03;4.10;;;5.50;65.00;;;;;;4956427;28;20493;-62
2021/03/07 02:08:04;;;;;;;9.97;4.30;;;5.50;65.10;;;;;;4992177;28;20029;-62
2021/03/07 02:10:39;;;;;;;6.93;3.67;;;5.50;65.20;;;;;;4949819;28;20032;-63
2021/03/07 02:13:15;;;;;;;12.00;4.97;;;5.40;65.20;;;;;;4954771;28;20141;-62
2021/03/07 02:15:48;;;;;;;8.33;3.80;;;5.40;65.20;;;;;;4950058;28;20114;-62
2021/03/07 02:18:15;;;;;;;9.45;4.30;;;5.40;65.10;;;;;;4964277;28;20180;-62
2021/03/07 02:20:50;;;;;;;20.20;4.60;;;5.40;65.00;;;;;;4962551;28;20042;-62
2021/03/07 02:23:24;;;;;;;9.67;4.23;;;5.40;65.00;;;;;;4945226;28;20031;-62
2021/03/07 02:25:51;;;;;;;9.67;4.03;;;5.80;65.20;;;;;;4952712;28;20531;-62
2021/03/07 02:28:19;;;;;;;7.27;3.50;;;5.30;65.00;;;;;;4970261;28;20168;-62
2021/03/07 02:30:45;;;;;;;8.43;4.70;;;5.30;65.00;;;;;;4949158;29;20034;-62
2021/03/07 02:33:19;;;;;;;8.77;4.43;;;5.20;64.90;;;;;;5010709;28;20035;-62
2021/03/07 02:35:56;;;;;;;8.80;4.05;;;5.20;64.90;;;;;;5041451;28;20017;-62
2021/03/07 02:38:23;;;;;;;9.23;4.50;;;5.20;64.90;;;;;;4958562;28;20063;-62
2021/03/07 02:40:53;;;;;;;11.53;4.40;;;5.20;64.80;;;;;;4958222;28;20027;-63
2021/03/07 02:43:20;;;;;;;8.27;4.23;;;5.20;65.00;;;;;;4987298;28;20033;-62
2021/03/07 02:45:46;;;;;;;8.67;4.77;;;5.20;65.00;;;;;;4951676;28;20057;-62
2021/03/07 02:48:16;;;;;;;9.33;4.63;;;5.10;65.10;;;;;;4982165;28;20029;-62
2021/03/07 02:50:46;;;;;;;8.60;4.00;;;5.10;65.10;;;;;;4954197;28;20019;-62
2021/03/07 02:53:16;;;;;;;7.80;4.17;;;5.10;65.10;;;;;;4951108;28;20034;-62
2021/03/07 02:55:44;;;;;;;7.53;4.30;;;5.10;65.10;;;;;;4951039;28;20069;-62
2021/03/07 02:58:14;;;;;;;9.57;3.90;;;5.10;65.40;;;;;;4943500;28;20799;-62
2021/03/07 03:00:50;;;;;;;10.33;4.20;;;5.00;65.30;;;;;;4992017;28;20383;-62
2021/03/07 03:03:16;;;;;;;8.30;4.17;;;5.10;65.50;;;;;;4981590;28;20027;-62
2021/03/07 03:05:42;;;;;;;9.20;4.53;;;5.10;65.60;;;;;;4947209;28;20066;-62
2021/03/07 03:08:08;;;;;;;8.43;4.00;;;5.10;65.50;;;;;;4990989;28;20031;-62
2021/03/07 03:10:35;;;;;;;11.53;4.60;;;5.10;65.60;;;;;;4952959;28;20021;-62
2021/03/07 03:13:03;;;;;;;10.40;4.77;;;5.10;65.50;;;;;;4962873;28;20093;-62
2021/03/07 03:15:29;;;;;;;10.47;3.80;;;5.00;65.40;;;;;;4956385;28;20031;-62
2021/03/07 03:17:56;;;;;;;10.80;5.00;;;5.00;65.40;;;;;;4977723;28;20035;-62
2021/03/07 03:20:22;;;;;;;8.87;4.20;;;5.00;65.40;;;;;;5040530;28;20029;-62
2021/03/07 03:22:49;;;;;;;10.70;3.83;;;4.90;65.40;;;;;;5011486;28;20042;-62
2021/03/07 03:25:15;;;;;;;9.33;4.00;;;4.90;65.30;;;;;;5048846;28;20082;-62
2021/03/07 03:27:41;;;;;;;9.30;4.80;;;4.90;65.40;;;;;;4994666;28;20062;-62
2021/03/07 03:30:14;;;;;;;10.07;3.67;;;4.90;65.50;;;;;;4960788;28;20430;-62
2021/03/07 03:32:40;;;;;;;8.88;3.78;;;4.90;65.70;;;;;;4966388;28;20194;-62
2021/03/07 03:35:12;;;;;;;9.13;4.10;;;4.80;65.70;;;;;;4995579;28;20199;-62
2021/03/07 03:37:39;;;;;;;9.80;4.67;;;4.80;65.60;;;;;;4987451;28;20061;-62
2021/03/07 03:40:08;;;;;;;10.93;4.37;;;4.80;65.50;;;;;;4973865;28;20408;-62
2021/03/07 03:42:39;;;;;;;9.83;3.80;;;4.80;65.50;;;;;;4971949;28;20039;-63
2021/03/07 03:45:08;;;;;;;8.10;4.10;;;4.80;65.40;;;;;;4953829;28;20110;-62
2021/03/07 03:47:41;;;;;;;9.93;5.00;;;4.80;65.50;;;;;;4953211;28;20138;-62
2021/03/07 03:50:10;;;;;;;7.93;3.80;;;4.70;65.40;;;;;;4945703;28;20031;-62
2021/03/07 03:52:37;;;;;;;9.27;4.33;;;4.70;65.50;;;;;;4948134;28;20115;-62
2021/03/07 03:55:17;;;;;;;10.27;3.80;;;4.70;65.60;;;;;;5004813;28;20047;-62
2021/03/07 03:57:45;;;;;;;11.43;4.00;;;4.60;65.50;;;;;;4960179;28;20114;-62
2021/03/07 04:00:19;;;;;;;11.03;4.50;;;4.60;65.30;;;;;;4948994;28;20050;-62
2021/03/07 04:02:45;;;;;;;;;;;4.60;65.80;;;;;;4964754;28;20512;-62
2021/03/07 04:05:12;;;;;;;8.23;4.43;;;4.60;65.10;;;;;;4958773;28;19941;-63
2021/03/07 04:07:39;;;;;;;9.13;4.43;;;4.60;65.20;;;;;;5006585;28;20035;-63
2021/03/07 04:10:06;;;;;;;8.43;4.33;;;4.50;65.30;;;;;;4949880;28;20551;-62
2021/03/07 04:12:32;;;;;;;10.43;4.57;;;4.60;65.40;;;;;;4998692;28;20077;-62
2021/03/07 04:14:58;;;;;;;9.27;4.50;;;4.50;65.40;;;;;;4947476;28;20364;-62
2021/03/07 04:17:25;;;;;;;9.97;4.07;;;4.50;65.40;;;;;;4950757;28;20075;-62
2021/03/07 04:19:52;;;;;;;7.67;4.17;;;4.50;65.40;;;;;;5015005;28;20045;-62
2021/03/07 04:22:19;;;;;;;10.63;4.97;;;4.40;65.30;;;;;;4956525;28;20034;-62
2021/03/07 04:24:46;;;;;;;9.00;4.77;;;4.40;65.30;;;;;;4948138;28;20166;-61
2021/03/07 04:27:13;;;;;;;11.73;4.97;;;4.40;65.40;;;;;;4944572;28;20050;-62
2021/03/07 04:29:39;;;;;;;10.10;4.47;;;4.40;65.50;;;;;;4946196;28;20328;-61
2021/03/07 04:32:06;;;;;;;9.83;4.10;;;4.40;65.50;;;;;;4942791;28;20028;-62
2021/03/07 04:34:33;;;;;;;9.87;4.30;;;4.40;65.40;;;;;;4955240;28;20119;-62
2021/03/07 04:37:02;;;;;;;10.90;4.67;;;4.40;65.30;;;;;;4975317;28;20067;-62
2021/03/07 04:39:27;;;;;;;7.83;4.13;;;4.30;65.30;;;;;;4942151;29;20062;-62
2021/03/07 04:41:54;;;;;;;9.77;4.60;;;4.30;65.40;;;;;;5022835;28;20447;-62
2021/03/07 04:44:19;;;;;;;9.77;3.73;;;4.30;65.50;;;;;;4961777;28;20107;-62
2021/03/07 04:46:45;;;;;;;9.23;4.47;;;4.30;65.50;;;;;;5006406;28;20428;-62
2021/03/07 04:49:11;;;;;;;8.43;4.47;;;4.20;65.30;;;;;;4961116;28;20711;-62
2021/03/07 04:51:36;;;;;;;12.33;4.60;;;4.30;65.40;;;;;;5002727;28;20401;-62
2021/03/07 04:54:03;;;;;;;8.37;4.10;;;4.20;65.40;;;;;;4948113;29;20043;-62
2021/03/07 04:56:30;;;;;;;9.10;4.47;;;4.20;65.50;;;;;;4992742;28;20083;-62
2021/03/07 04:58:55;;;;;;;8.83;4.30;;;4.20;65.50;;;;;;5008032;28;20555;-63
2021/03/07 05:01:21;;;;;;;8.30;3.93;;;4.20;65.60;;;;;;4953858;28;20038;-62
2021/03/07 05:03:47;;;;;;;9.77;4.67;;;4.20;65.60;;;;;;4960209;28;20032;-62
2021/03/07 05:06:13;;;;;;;11.30;4.70;;;4.20;65.60;;;;;;4960225;28;20396;-62
2021/03/07 05:08:39;;;;;;;8.43;3.77;;;4.20;65.60;;;;;;4958019;28;20027;-62
2021/03/07 05:11:05;;;;;;;10.57;4.30;;;4.10;65.50;;;;;;4957990;28;20034;-62
2021/03/07 05:13:31;;;;;;;8.93;4.50;;;4.10;65.40;;;;;;4961471;28;20040;-62
2021/03/07 05:15:56;;;;;;;11.10;5.00;;;4.10;65.40;;;;;;4989347;28;20035;-62
2021/03/07 05:18:22;;;;;;;9.00;4.70;;;4.20;65.40;;;;;;4949407;28;20064;-62
2021/03/07 05:20:48;;;;;;;16.30;4.53;;;4.10;65.40;;;;;;4966804;28;20367;-61
2021/03/07 05:23:14;;;;;;;7.57;4.20;;;4.10;65.40;;;;;;4960544;28;20055;-62
2021/03/07 05:25:39;;;;;;;8.43;4.07;;;4.10;65.50;;;;;;4969107;28;20027;-62
2021/03/07 05:28:05;;;;;;;10.10;4.23;;;4.20;65.60;;;;;;4946719;28;20031;-62
2021/03/07 05:30:31;;;;;;;11.67;4.43;;;4.20;65.60;;;;;;4955879;28;20542;-62
2021/03/07 05:32:57;;;;;;;8.37;3.50;;;4.20;65.60;;;;;;4950445;28;20422;-62
2021/03/07 05:35:24;;;;;;;9.73;4.27;;;4.30;65.60;;;;;;4955660;28;20081;-62
2021/03/07 05:37:49;;;;;;;9.33;4.20;;;4.30;65.60;;;;;;4949930;28;20393;-62
2021/03/07 05:40:16;;;;;;;7.77;4.10;;;4.40;65.60;;;;;;4970583;28;20040;-62
2021/03/07 05:42:42;;;;;;;10.30;5.00;;;4.50;65.60;;;;;;4953140;28;20035;-63
2021/03/07 05:45:09;;;;;;;10.47;4.33;;;4.50;65.70;;;;;;4953291;28;20085;-62
2021/03/07 05:47:34;;;;;;;8.77;4.03;;;4.50;65.80;;;;;;4956313;28;20786;-62
2021/03/07 05:50:00;;;;;;;9.13;5.13;;;4.50;65.80;;;;;;4961863;28;20081;-62
2021/03/07 05:52:26;;;;;;;12.47;4.83;;;4.60;65.90;;;;;;4949919;28;20089;-62
2021/03/07 05:54:52;;;;;;;7.83;3.93;;;4.60;65.80;;;;;;4981536;28;20058;-62
2021/03/07 05:57:23;;;;;;;7.90;3.87;;;4.60;65.80;;;;;;4938273;28;20044;-64
2021/03/07 05:59:50;;;;;;;8.67;4.27;;;4.70;66.00;;;;;;4953112;28;20085;-62
2021/03/07 06:02:16;;;;;;;9.10;3.87;;;4.70;66.00;;;;;;4951698;28;20035;-62
2021/03/07 06:04:51;;;;;;;9.73;4.27;;;4.80;66.00;;;;;;4957228;28;20027;-61
2021/03/07 06:07:17;;;;;;;7.90;3.80;;;4.80;66.00;;;;;;4937670;28;20135;-62
2021/03/07 06:09:42;;;;;;;9.10;4.53;;;4.90;66.00;;;;;;4944543;28;20164;-61
2021/03/07 06:12:19;;;;;;;8.30;3.93;;;4.90;66.00;;;;;;4964742;28;20054;-62
2021/03/07 06:14:59;;;;;;;9.03;3.73;;;4.90;66.00;;;;;;4956126;28;20031;-62
2021/03/07 06:17:38;;;;;;;7.47;3.97;;;5.00;66.20;;;;;;4941817;28;20043;-62
2021/03/07 06:20:05;;;;;;;7.83;4.03;;;5.00;66.20;;;;;;4947247;28;20031;-62
2021/03/07 06:22:33;;;;;;;10.00;4.27;;;5.00;66.20;;;;;;4949695;28;20055;-61
2021/03/07 06:24:59;;;;;;;8.97;4.03;;;5.10;66.30;;;;;;4991754;28;20092;-62
2021/03/07 06:27:25;;;;;;;10.10;5.23;;;5.10;66.40;;;;;;4936004;28;20170;-62
2021/03/07 06:30:05;;;;;;;10.50;3.97;;;5.20;66.40;;;;;;4991076;28;20041;-62
2021/03/07 06:32:42;;;;;;;9.77;3.73;;;5.20;66.40;;;;;;4954224;28;20483;-62
2021/03/07 06:35:10;;;;;;;9.63;3.73;;;5.20;66.40;;;;;;4994098;28;20027;-62
2021/03/07 06:38:01;;;;;;;7.17;3.53;;;5.20;66.50;;;;;;4940192;29;20350;-62
2021/03/07 06:40:30;;;;;;;6.80;3.50;;;5.30;66.50;;;;;;4951893;28;20039;-62
2021/03/07 06:42:56;;;;;;;10.43;4.20;;;5.30;66.50;;;;;;4950062;28;20046;-62
2021/03/07 06:45:23;;;;;;;8.23;3.60;;;5.40;66.40;;;;;;4951130;28;20031;-62
2021/03/07 06:47:57;;;;;;;11.13;3.87;;;5.40;66.70;;;;;;4948470;29;20338;-62
2021/03/07 06:50:24;;;;;;;9.47;3.97;;;5.50;66.90;;;;;;4953995;28;20113;-63
2021/03/07 06:52:55;;;;;;;7.67;3.97;;;5.50;66.80;;;;;;4946186;28;20082;-62
2021/03/07 06:55:26;;;;;;;7.97;4.10;;;5.50;66.70;;;;;;5007824;28;20056;-62
2021/03/07 06:57:53;;;;;;;8.13;3.40;;;5.50;67.70;;;;;;4944508;28;20035;-62
2021/03/07 07:00:39;;;;;;;7.90;3.83;;;5.40;68.70;;;;;;4987883;28;20427;-62
2021/03/07 07:03:10;;;;;;;8.37;4.03;;;5.20;69.20;;;;;;4958615;28;20392;-62
2021/03/07 07:05:46;;;;;;;7.33;3.77;;;5.00;69.80;;;;;;4965308;28;20038;-62
2021/03/07 07:08:14;;;;;;;6.77;3.50;;;4.90;70.40;;;;;;4942717;28;20043;-62
2021/03/07 07:10:49;;;;;;;12.03;5.03;;;4.80;71.00;;;;;;4980829;28;20058;-62
2021/03/07 07:13:14;;;;;;;7.83;3.73;;;4.80;71.20;;;;;;4960557;28;20150;-62
2021/03/07 07:16:05;;;;;;;7.07;3.97;;;4.90;71.50;;;;;;4948291;28;20126;-60
2021/03/07 07:18:35;;;;;;;7.73;3.97;;;4.90;71.70;;;;;;4966103;28;20126;-62
2021/03/07 07:21:04;;;;;;;7.97;3.83;;;5.00;71.50;;;;;;4948952;28;20488;-62
2021/03/07 07:23:30;;;;;;;8.60;4.13;;;5.10;71.30;;;;;;4935425;28;20035;-62
2021/03/07 07:25:56;;;;;;;8.70;4.47;;;5.20;71.20;;;;;;4955410;28;20051;-62
2021/03/07 07:28:23;;;;;;;10.37;4.70;;;5.30;71.20;;;;;;5016218;28;20114;-62
2021/03/07 07:31:13;;;;;;;7.23;3.93;;;5.50;70.80;;;;;;4946291;28;20015;-62
2021/03/07 07:33:47;;;;;;;9.20;4.00;;;5.60;70.20;;;;;;4938016;28;20043;-62
2021/03/07 07:36:48;;;;;;;8.63;4.60;;;5.70;70.10;;;;;;4954373;28;22108;-62
2021/03/07 07:39:16;;;;;;;8.83;4.33;;;5.70;70.20;;;;;;4962053;28;20033;-63
2021/03/07 07:41:42;;;;;;;10.10;4.43;;;5.80;70.20;;;;;;4953002;28;20032;-62
2021/03/07 07:44:10;;;;;;;9.13;4.33;;;5.80;70.20;;;;;;4962558;28;20040;-62
2021/03/07 07:47:02;;;;;;;8.17;4.47;;;5.80;70.20;;;;;;4981921;28;20054;-62
2021/03/07 07:49:49;;;;;;;7.23;4.23;;;5.90;70.10;;;;;;4957285;28;20106;-62
2021/03/07 07:52:24;;;;;;;7.87;4.03;;;6.00;70.10;;;;;;4942291;28;20030;-62
2021/03/07 07:54:55;;;;;;;8.17;4.27;;;6.10;69.80;;;;;;4944838;28;20076;-62
2021/03/07 07:57:37;;;;;;;8.63;3.60;;;6.30;69.50;;;;;;4938708;28;20181;-62
2021/03/07 08:00:05;;;;;;;8.30;3.57;;;6.40;69.10;;;;;;4929364;28;20097;-63
2021/03/07 08:02:46;;;;;;;9.90;3.90;;;6.60;68.40;;;;;;4947484;28;20051;-63
2021/03/07 08:05:22;;;;;;;9.00;4.23;;;6.80;68.00;;;;;;4928562;29;20436;-63
2021/03/07 08:08:03;;;;;;;7.40;3.80;;;6.90;67.10;;;;;;4946607;28;20121;-63
2021/03/07 08:10:43;;;;;;;9.17;3.90;;;7.00;66.80;;;;;;4939014;28;20023;-61
2021/03/07 08:13:12;;;;;;;9.40;3.83;;;7.00;66.40;;;;;;4966129;28;20125;-63
2021/03/07 08:15:40;;;;;;;8.00;3.83;;;7.00;66.50;;;;;;4987938;28;20096;-63
2021/03/07 08:18:06;;;;;;;8.80;4.17;;;7.10;66.10;;;;;;4950755;28;20052;-63
2021/03/07 08:20:38;;;;;;;7.83;3.90;;;7.10;65.90;;;;;;4955838;28;20031;-64
2021/03/07 08:23:11;;;;;;;8.67;4.43;;;7.20;66.10;;;;;;4947670;28;20043;-63
2021/03/07 08:25:52;;;;;;;8.75;4.07;;;7.30;65.90;;;;;;4942991;28;20069;-66
2021/03/07 08:28:26;;;;;;;9.40;3.93;;;7.40;65.20;;;;;;4970119;28;20114;-67
2021/03/07 08:30:53;;;;;;;7.35;3.55;;;7.40;64.90;;;;;;5027268;28;20031;-62
2021/03/07 08:33:23;;;;;;;8.50;3.72;;;7.50;64.80;;;;;;4970976;28;20110;-63
2021/03/07 08:36:11;;;;;;;7.78;3.65;;;7.70;64.30;;;;;;4952041;28;20031;-62
2021/03/07 08:38:37;;;;;;;8.85;3.80;;;7.80;63.30;;;;;;4960506;28;20084;-62
2021/03/07 08:41:03;;;;;;;7.03;3.20;;;7.80;62.90;;;;;;4963767;28;20031;-62
2021/03/07 08:43:30;;;;;;;9.73;3.17;;;7.80;62.80;;;;;;4944191;28;20054;-63
2021/03/07 08:46:12;;;;;;;8.80;3.97;;;7.90;62.90;;;;;;4954007;28;20039;-62
2021/03/07 08:48:43;;;;;;;6.95;3.22;;;8.10;62.60;;;;;;4942635;28;20031;-62
2021/03/07 08:51:10;;;;;;;11.18;4.35;;;8.20;62.00;;;;;;4951562;28;20127;-62
2021/03/07 08:53:38;;;;;;;6.60;3.35;;;8.30;61.10;;;;;;4949869;29;20125;-62
2021/03/07 08:56:04;;;;;;;7.03;3.40;;;8.40;59.40;;;;;;4960680;28;20063;-61
2021/03/07 08:58:30;;;;;;;11.93;4.22;;;8.50;58.40;;;;;;4950970;28;20037;-62
2021/03/07 09:00:58;;;;;;;7.72;4.53;;;8.70;58.30;;;;;;4982060;28;20039;-62
2021/03/07 09:03:25;;;;;;;6.78;3.50;;;9.10;57.60;;;;;;4977501;28;20039;-62
2021/03/07 09:05:51;;;;;;;6.20;3.42;;;9.50;53.60;;;;;;4980142;28;20040;-62
2021/03/07 09:08:26;;;;;;;5.80;2.90;;;9.60;53.10;;;;;;5031070;28;20093;-64
2021/03/07 09:10:55;;;;;;;7.78;3.15;;;9.60;51.40;;;;;;4971725;28;20034;-62
2021/03/07 09:13:26;;;;;;;6.72;2.67;;;9.50;51.80;;;;;;4949325;28;20045;-62
2021/03/07 09:15:52;;;;;;;6.93;2.95;;;9.60;52.20;;;;;;4947880;28;20034;-62
2021/03/07 09:18:28;;;;;;;6.30;3.13;;;9.50;51.10;;;;;;4950056;28;20042;-62
2021/03/07 09:20:54;;;;;;;5.78;3.13;;;9.50;50.50;;;;;;4949648;28;20047;-62
2021/03/07 09:23:35;;;;;;;4.20;2.63;;;9.50;50.50;;;;;;4938361;28;20105;-62
2021/03/07 09:26:04;;;;;;;5.97;2.50;;;9.60;49.30;;;;;;4950376;29;20129;-62
2021/03/07 09:28:32;;;;;;;5.20;2.58;;;10.10;48.20;;;;;;4942523;29;20035;-62
2021/03/07 09:30:59;;;;;;;8.20;3.65;;;11.00;47.80;;;;;;4950354;28;20031;-62
2021/03/07 09:33:25;;;;;;;5.18;2.20;;;11.80;42.50;;;;;;4950704;28;20031;-62
2021/03/07 09:36:06;;;;;;;4.22;1.88;;;12.20;43.80;;;;;;4948843;28;20085;-62
2021/03/07 09:38:44;;;;;;;3.67;1.67;;;12.40;42.10;;;;;;4950205;28;20493;-62
2021/03/07 09:41:16;;;;;;;4.55;2.20;;;12.40;41.80;;;;;;4949497;29;20081;-61
2021/03/07 09:43:45;;;;;;;5.78;2.60;;;12.20;42.30;;;;;;4944813;28;20038;-62
2021/03/07 09:46:12;;;;;;;3.55;1.75;;;11.80;42.00;;;;;;4956503;28;20019;-62
2021/03/07 09:48:39;;;;;;;3.90;1.90;;;11.50;42.10;;;;;;4976975;28;20475;-63
2021/03/07 09:51:10;;;;;;;3.22;1.60;;;10.80;42.40;;;;;;4989771;28;20044;-62
2021/03/07 09:53:38;;;;;;;2.45;1.30;;;10.90;43.10;;;;;;4994477;28;20037;-62
2021/03/07 09:56:04;;;;;;;4.45;1.70;;;10.90;43.30;;;;;;4941070;28;20121;-62
2021/03/07 09:58:38;;;;;;;3.03;1.60;;;10.90;42.30;;;;;;4940118;28;20087;-62
2021/03/07 10:01:05;;;;;;;5.18;2.03;;;10.90;42.50;;;;;;4948908;28;20074;-62
2021/03/07 10:03:32;;;;;;;3.67;1.77;;;11.00;42.60;;;;;;4961736;28;20043;-62
2021/03/07 10:06:09;;;;;;;5.50;1.85;;;11.20;43.10;;;;;;4962358;28;20027;-62
2021/03/07 10:08:36;;;;;;;2.05;1.15;;;11.70;42.30;;;;;;4937313;28;20032;-62
2021/03/07 10:11:09;;;;;;;3.28;1.48;;;12.30;41.40;;;;;;4965417;28;20114;-62
2021/03/07 10:13:35;;;;;;;2.47;1.40;;;12.50;40.20;;;;;;4948172;28;20042;-62
2021/03/07 10:16:00;;;;;;;4.63;1.80;;;12.40;38.50;;;;;;4977807;28;20041;-62
2021/03/07 10:18:26;;;;;;;3.70;1.75;;;12.30;39.20;;;;;;5008485;28;20138;-62
2021/03/07 10:20:57;;;;;;;5.20;2.25;;;12.20;40.00;;;;;;4960422;28;20374;-62
2021/03/07 10:23:31;;;;;;;4.82;2.25;;;12.20;40.20;;;;;;4951254;28;20133;-62
2021/03/07 10:25:58;;;;;;;5.35;2.55;;;12.40;39.80;;;;;;5033090;28;20033;-62
2021/03/07 10:28:32;;;;;;;4.53;2.22;;;12.90;39.20;;;;;;5039845;28;20087;-62
2021/03/07 10:31:10;;;;;;;4.07;2.22;;;13.70;38.20;;;;;;4975429;28;20042;-62
2021/03/07 10:33:36;;;;;;;4.55;1.98;;;14.60;36.20;;;;;;4981260;28;20038;-62
2021/03/07 10:36:09;;;;;;;3.78;1.92;;;16.30;33.00;;;;;;5007205;28;20029;-63
2021/03/07 10:38:43;;;;;;;3.55;1.70;;;18.60;31.40;;;;;;4941212;28;20066;-63
2021/03/07 10:41:22;;;;;;;5.30;2.70;;;21.00;28.30;;;;;;4974336;28;20034;-63
2021/03/07 10:43:53;;;;;;;5.38;2.17;;;23.40;26.40;;;;;;4967094;28;20096;-63
2021/03/07 10:46:33;;;;;;;3.97;1.98;;;24.80;24.70;;;;;;4964785;28;20046;-63
2021/03/07 10:49:01;;;;;;;4.05;1.90;;;24.90;25.00;;;;;;4968247;28;20444;-63
2021/03/07 10:51:28;;;;;;;2.90;1.60;;;25.10;23.80;;;;;;4957514;28;20036;-63
2021/03/07 10:53:54;;;;;;;4.50;1.80;;;25.00;24.50;;;;;;4955241;28;20188;-64
2021/03/07 10:56:20;;;;;;;3.05;1.83;;;26.70;22.70;;;;;;4948193;28;20047;-63
2021/03/07 10:58:46;;;;;;;4.13;1.67;;;27.00;22.60;;;;;;4992158;28;20035;-63
2021/03/07 11:01:15;;;;;;;3.55;1.90;;;25.90;22.30;;;;;;4949310;28;20031;-63
2021/03/07 11:03:43;;;;;;;2.85;1.35;;;24.90;23.40;;;;;;4984230;28;20023;-63
2021/03/07 11:06:09;;;;;;;3.80;1.70;;;25.00;23.40;;;;;;4952244;28;20055;-63
2021/03/07 11:08:35;;;;;;;3.15;1.33;;;24.40;23.40;;;;;;4973344;28;20043;-63
2021/03/07 11:11:01;;;;;;;2.58;1.40;;;23.00;24.30;;;;;;4957643;28;20477;-63
2021/03/07 11:13:26;;;;;;;2.38;1.30;;;20.90;25.20;;;;;;4989470;28;20172;-63
2021/03/07 11:15:52;;;;;;;4.45;1.48;;;20.30;26.10;;;;;;4980572;28;20025;-63
2021/03/07 11:18:17;;;;;;;3.55;1.60;;;18.60;27.80;;;;;;4976265;28;20038;-62
2021/03/07 11:20:43;;;;;;;4.53;1.80;;;16.20;29.60;;;;;;5030550;28;20048;-63
2021/03/07 11:23:09;;;;;;;2.83;1.40;;;15.60;30.40;;;;;;5001409;28;20605;-63
2021/03/07 11:25:34;;;;;;;4.68;1.70;;;16.10;30.10;;;;;;5047511;28;20033;-63
2021/03/07 11:28:00;;;;;;;3.70;1.67;;;16.30;30.00;;;;;;4994421;28;20051;-62
2021/03/07 11:30:26;;;;;;;2.97;1.55;;;15.90;30.00;;;;;;5003908;28;20126;-62
2021/03/07 11:32:51;;;;;;;4.13;1.83;;;15.70;30.80;;;;;;5047984;28;20033;-63
2021/03/07 11:35:17;;;;;;;3.88;1.77;;;14.30;32.50;;;;;;4987782;28;20110;-62
2021/03/07 11:37:43;;;;;;;3.85;1.85;;;13.70;33.50;;;;;;4948361;28;20134;-63
2021/03/07 11:40:10;;;;;;;4.30;1.75;;;13.60;34.20;;;;;;4947558;28;20535;-62
2021/03/07 11:42:36;;;;;;;4.03;1.73;;;13.00;34.60;;;;;;4938838;28;20161;-62
2021/03/07 11:45:04;;;;;;;3.22;1.40;;;12.70;35.30;;;;;;4953215;28;20530;-62
2021/03/07 11:47:29;;;;;;;4.00;1.70;;;12.80;36.10;;;;;;4964592;28;20046;-62
2021/03/07 11:49:55;;;;;;;4.15;1.63;;;13.30;35.60;;;;;;5020692;28;20031;-62
2021/03/07 11:52:21;;;;;;;3.67;2.00;;;13.40;36.20;;;;;;4948388;28;20039;-62
2021/03/07 11:54:46;;;;;;;4.93;1.77;;;13.90;34.80;;;;;;4991529;28;20059;-62
2021/03/07 11:57:12;;;;;;;5.97;2.15;;;14.00;34.30;;;;;;4956308;28;20050;-63
2021/03/07 11:59:38;;;;;;;4.32;2.00;;;13.60;34.90;;;;;;4949866;28;20508;-63
2021/03/07 12:02:03;;;;;;;4.03;1.80;;;12.60;36.00;;;;;;4962567;28;20043;-62
2021/03/07 12:04:29;;;;;;;5.03;2.00;;;12.30;37.00;;;;;;5023068;28;20420;-62
2021/03/07 12:06:55;;;;;;;5.97;1.75;;;12.20;37.80;;;;;;4977895;28;20497;-62
2021/03/07 12:09:20;;;;;;;4.38;2.15;;;12.50;37.70;;;;;;5003226;28;20385;-62
2021/03/07 12:11:46;;;;;;;4.97;2.30;;;12.70;37.00;;;;;;5031858;28;20071;-62
2021/03/07 12:14:12;;;;;;;5.35;2.08;;;12.60;36.40;;;;;;4963504;28;20043;-62
2021/03/07 12:16:38;;;;;;;5.88;2.60;;;12.60;36.90;;;;;;4952592;28;20087;-63
2021/03/07 12:19:04;;;;;;;4.18;2.10;;;12.20;37.20;;;;;;4957433;28;20829;-62
2021/03/07 12:21:30;;;;;;;5.70;2.83;;;11.80;38.10;;;;;;4962906;28;20033;-62
2021/03/07 12:23:55;;;;;;;4.85;2.90;;;11.70;38.10;;;;;;4948319;28;20035;-62
2021/03/07 12:26:21;;;;;;;5.60;2.60;;;11.70;38.80;;;;;;4954328;28;20051;-63
2021/03/07 12:28:47;;;;;;;4.82;2.97;;;11.80;38.80;;;;;;4965586;28;20054;-62
2021/03/07 12:31:13;;;;;;;4.28;2.03;;;11.80;39.40;;;;;;4949241;28;20040;-62
2021/03/07 12:33:39;;;;;;;6.93;2.20;;;12.10;38.80;;;;;;4994548;28;20051;-63
2021/03/07 12:36:05;;;;;;;5.05;2.42;;;12.00;39.10;;;;;;4948866;28;20051;-62
2021/03/07 12:38:31;;;;;;;4.85;2.22;;;11.90;39.30;;;;;;4992355;28;20056;-62
2021/03/07 12:40:56;;;;;;;5.25;2.70;;;11.80;39.10;;;;;;5002236;28;20096;-62
2021/03/07 12:43:22;;;;;;;5.28;2.20;;;11.70;39.70;;;;;;4963035;28;20114;-62
2021/03/07 12:45:48;;;;;;;4.40;2.10;;;11.50;39.90;;;;;;4946803;28;20036;-62
2021/03/07 12:48:13;;;;;;;8.57;2.50;;;11.30;39.10;;;;;;4939768;28;20445;-62
2021/03/07 12:50:39;;;;;;;4.22;2.38;;;11.20;39.90;;;;;;4958348;28;20466;-62
2021/03/07 12:53:06;;;;;;;3.38;1.90;;;10.80;39.70;;;;;;4947724;28;20036;-62
2021/03/07 12:55:32;;;;;;;3.75;1.90;;;10.80;40.10;;;;;;4941093;28;20063;-62
2021/03/07 12:57:58;;;;;;;3.72;1.90;;;10.90;40.30;;;;;;4933137;28;20035;-62
2021/03/07 13:00:25;;;;;;;7.18;3.00;;;11.10;40.60;;;;;;4945270;28;20027;-63